This is the latest recevied weather packets stored in our database for station/object EA3FHP. If no packets are shown the sender has not sent any weather packets the latest 10 day(s).
| Time | Temp. | Humidity | Pressure | Rain* | Wind** | Luminosity | Snow |
|---|---|---|---|---|---|---|---|
| 1787553004 | 18.33° C | 93% | 1017.9 hPa | 0 mm | - | - | - |
| 1787552403 | 18.33° C | 93% | 1017.8 hPa | 0 mm | - | - | - |
| 1787551803 | 17.78° C | 93% | 1017.8 hPa | 0 mm | - | - | - |
| 1787551203 | 17.22° C | 93% | 1017.8 hPa | 0 mm | - | - | - |
| 1787550603 | 17.22° C | 93% | 1018 hPa | 0 mm | - | - | - |
| 1787550003 | 17.22° C | 93% | 1017.6 hPa | 0 mm | - | - | - |
| 1787549403 | 17.22° C | 93% | 1017.7 hPa | 0 mm | - | - | - |
| 1787518803 | 22.78° C | 82% | 1019.2 hPa | 0 mm | - | - | - |
| 1787518203 | 22.78° C | 80% | 1019.3 hPa | 0 mm | - | - | - |
| 1787517603 | 23.33° C | 79% | 1019.3 hPa | 0 mm | - | - | - |
| 1787517003 | 23.33° C | 78% | 1019.6 hPa | 0 mm | - | - | - |
| 1787516403 | 23.33° C | 78% | 1019.4 hPa | 0 mm | - | - | - |
| 1787515803 | 23.33° C | 77% | 1019.3 hPa | 0 mm | - | - | - |
| 1787515203 | 23.89° C | 76% | 1019.1 hPa | 0 mm | - | - | - |
| 1787514603 | 23.89° C | 75% | 1019 hPa | 0 mm | - | - | - |
| 1787514003 | 23.89° C | 75% | 1018.7 hPa | 0 mm | - | - | - |
| 1787513403 | 23.89° C | 75% | 1018.7 hPa | 0 mm | - | - | - |
| 1787512806 | 24.44° C | 75% | 1018.7 hPa | 0 mm | - | - | - |
| 1787512204 | 24.44° C | 75% | 1019 hPa | 0 mm | - | - | - |
| 1787511603 | 24.44° C | 74% | 1018.7 hPa | 0 mm | - | - | - |
| 1787511005 | 24.44° C | 73% | 1018.7 hPa | 0 mm | - | - | - |
| 1787510403 | 25° C | 71% | 1018.4 hPa | 0 mm | - | - | - |
| 1787509804 | 25° C | 70% | 1017.8 hPa | 0 mm | - | - | - |
| 1787509203 | 25.56° C | 71% | 1017.7 hPa | 0 mm | - | - | - |
| 1787508603 | 25.56° C | 70% | 1017.8 hPa | 0 mm | - | - | - |
* Rain latest hour (hover to see other rain measurements)
** Current wind speed in m/s (hover to see current wind gust speed)